Terminal Aerodrome Forecast
Issued by NWS Dallas/Fort Worth, TX

Home | Current Version | Previous Version | Text Only | Print | Product List | Glossary On
Versions: 1 2 3 4 5 6 7 8 9 10 11 12 13 14 15 16 17 18 19 20 21 22 23 24 25 26 27 28 29 30 31 32 33 34 35 36 37 38
000
FTUS44 KFWD 201200 AAA
TAFACT
TAF AMD
KACT 201250Z 2013/2112 13006KT P6SM BKN045
      TEMPO 2013/2016 BKN008
     FM201600 13007KT P6SM OVC030
     FM201900 14008KT P6SM BKN040
     FM202300 VRB03KT P6SM FEW100=

USA.gov is the U.S. government's official web portal to all federal, state and local government web resources and services.